Time;durP1;ratioP1;P1;durP2;ratioP2;P2;SDS_P1;SDS_P2;PMS_P1;PMS_P2;Temp;Humidity;BMP_temperature;BMP_pressure;BME280_temperature;BME280_humidity;BME280_pressure;Samples;Min_cycle;Max_cycle;Signal;HPM_P1;HPM_P2
2023/11/21 00:01:36;;;;;;;19.38;11.18;;;9.90;99.90;;;;;;5036433;28;20013;-88
2023/11/21 00:04:01;;;;;;;22.27;11.82;;;9.90;99.90;;;;;;5035993;28;20033;-89
2023/11/21 00:06:27;;;;;;;19.45;10.10;;;10.10;99.90;;;;;;5036255;28;20037;-88
2023/11/21 00:08:53;;;;;;;17.42;10.55;;;10.00;99.90;;;;;;5036093;28;20025;-88
2023/11/21 00:11:18;;;;;;;15.30;10.07;;;10.00;99.90;;;;;;5035952;28;20026;-88
2023/11/21 00:13:45;;;;;;;17.88;10.07;;;10.00;99.90;;;;;;5035872;28;20029;-89
2023/11/21 00:16:11;;;;;;;18.10;10.60;;;10.00;99.90;;;;;;5036747;28;20044;-88
2023/11/21 00:18:36;;;;;;;15.70;9.80;;;10.10;99.90;;;;;;5036039;28;20545;-89
2023/11/21 00:21:03;;;;;;;19.70;11.30;;;10.00;99.90;;;;;;5040179;28;20120;-89
2023/11/21 00:23:29;;;;;;;18.20;10.88;;;10.00;99.90;;;;;;5045293;28;20074;-89
2023/11/21 00:25:54;;;;;;;17.17;11.13;;;10.00;99.90;;;;;;5034928;28;20394;-89
2023/11/21 00:28:20;;;;;;;15.38;9.88;;;10.00;99.90;;;;;;5036250;28;20013;-88
2023/11/21 00:30:45;;;;;;;15.95;10.45;;;9.90;99.90;;;;;;5038737;28;20104;-88
2023/11/21 00:33:11;;;;;;;15.38;10.52;;;10.00;99.90;;;;;;5035946;28;20108;-89
2023/11/21 00:35:36;;;;;;;19.55;10.93;;;9.90;99.90;;;;;;5036115;28;20044;-89
2023/11/21 00:38:03;;;;;;;17.30;10.05;;;9.90;99.90;;;;;;5035629;28;20075;-87
2023/11/21 00:40:29;;;;;;;14.52;9.85;;;9.90;99.90;;;;;;5036230;28;20076;-89
2023/11/21 00:42:55;;;;;;;16.83;10.48;;;9.90;99.90;;;;;;5035788;28;20026;-89
2023/11/21 00:45:21;;;;;;;18.98;11.15;;;9.90;99.90;;;;;;5035233;28;20034;-88
2023/11/21 00:47:46;;;;;;;20.65;11.00;;;9.90;99.90;;;;;;5035583;28;20380;-89
2023/11/21 00:50:12;;;;;;;20.73;11.27;;;9.90;99.90;;;;;;5036121;28;20029;-90
2023/11/21 00:52:38;;;;;;;17.52;11.05;;;9.90;99.90;;;;;;5038686;28;20032;-88
2023/11/21 00:55:07;;;;;;;16.35;10.43;;;9.90;99.90;;;;;;5044508;28;20056;-89
2023/11/21 00:57:33;;;;;;;16.80;10.50;;;9.90;99.90;;;;;;5035643;28;20375;-88
2023/11/21 00:59:58;;;;;;;16.33;10.70;;;9.80;99.90;;;;;;5035426;28;20032;-89
2023/11/21 01:02:25;;;;;;;17.73;10.18;;;9.80;99.90;;;;;;5035418;28;20359;-88
2023/11/21 01:04:50;;;;;;;18.63;11.68;;;9.80;99.90;;;;;;5035528;28;20033;-88
2023/11/21 01:07:16;;;;;;;22.52;11.70;;;9.80;99.90;;;;;;5035096;28;20022;-88
2023/11/21 01:09:41;;;;;;;23.25;12.15;;;9.80;99.90;;;;;;5034971;28;20031;-89
2023/11/21 01:12:07;;;;;;;20.17;11.20;;;9.70;99.90;;;;;;5036853;28;20022;-88
2023/11/21 01:14:33;;;;;;;23.23;12.00;;;9.70;99.90;;;;;;5042972;28;20021;-88
2023/11/21 01:16:58;;;;;;;24.88;12.48;;;9.70;99.90;;;;;;5055734;28;20032;-89
2023/11/21 01:19:24;;;;;;;20.50;12.27;;;9.60;99.90;;;;;;5055726;28;20035;-88
2023/11/21 01:21:49;;;;;;;27.55;12.38;;;9.60;99.90;;;;;;5054684;28;20109;-89
2023/11/21 01:24:15;;;;;;;21.73;11.30;;;9.60;99.90;;;;;;5054944;28;20029;-89
2023/11/21 01:26:40;;;;;;;22.17;12.25;;;9.60;99.90;;;;;;5054643;28;20025;-89
2023/11/21 01:29:06;;;;;;;24.65;12.63;;;9.60;99.90;;;;;;5054559;28;20206;-88
2023/11/21 01:31:31;;;;;;;21.33;11.85;;;9.60;99.90;;;;;;5055280;28;20029;-89
2023/11/21 01:33:57;;;;;;;21.17;12.82;;;9.60;99.90;;;;;;5050402;28;20029;-87
2023/11/21 01:36:23;;;;;;;18.77;10.45;;;9.70;99.90;;;;;;5042765;28;20022;-88
2023/11/21 01:38:48;;;;;;;19.30;12.23;;;9.70;99.90;;;;;;5034516;28;20017;-88
2023/11/21 01:41:14;;;;;;;20.35;11.63;;;9.70;99.90;;;;;;5034739;28;20397;-88
2023/11/21 01:43:40;;;;;;;19.30;10.68;;;9.70;99.90;;;;;;5034570;28;20461;-88
2023/11/21 01:46:06;;;;;;;24.48;12.80;;;9.80;99.90;;;;;;5035052;28;20080;-88
2023/11/21 01:48:33;;;;;;;22.98;11.10;;;9.80;99.90;;;;;;5034158;28;20026;-88
2023/11/21 01:50:58;;;;;;;20.00;10.57;;;9.20;99.90;;;;;;5034610;28;20025;-88
2023/11/21 01:53:25;;;;;;;16.67;10.85;;;9.90;99.90;;;;;;5034750;28;20024;-88
2023/11/21 01:55:51;;;;;;;16.73;10.68;;;9.90;99.90;;;;;;5037294;28;20084;-89
2023/11/21 01:58:17;;;;;;;22.13;11.63;;;9.90;99.90;;;;;;5053907;28;20025;-88
2023/11/21 02:00:43;;;;;;;25.48;11.20;;;9.90;99.90;;;;;;5037953;28;20021;-87
2023/11/21 02:03:10;;;;;;;16.08;10.35;;;9.90;99.90;;;;;;5049164;28;20021;-89
2023/11/21 02:05:36;;;;;;;19.35;10.77;;;10.00;99.90;;;;;;5034821;28;20160;-88
2023/11/21 02:08:02;;;;;;;31.48;11.60;;;10.00;99.90;;;;;;5034694;28;20492;-89
2023/11/21 02:10:29;;;;;;;22.85;10.43;;;10.00;99.90;;;;;;5034212;28;20054;-88
2023/11/21 02:12:56;;;;;;;21.27;10.18;;;10.00;99.90;;;;;;5035073;28;20044;-88
2023/11/21 02:15:26;;;;;;;20.60;10.45;;;10.00;99.90;;;;;;5036984;28;20111;-89
2023/11/21 02:17:53;;;;;;;25.52;11.07;;;10.00;99.90;;;;;;5042758;28;20390;-89
2023/11/21 02:20:19;;;;;;;19.70;10.68;;;10.00;99.90;;;;;;5035013;28;20044;-89
2023/11/21 02:22:58;;;;;;;20.20;9.75;;;10.10;99.90;;;;;;5037102;28;20026;-88
2023/11/21 02:25:28;;;;;;;19.77;9.82;;;10.10;99.90;;;;;;5041204;28;20095;-88
2023/11/21 02:27:54;;;;;;;15.23;9.40;;;10.10;99.90;;;;;;5034399;28;20026;-88
2023/11/21 02:30:25;;;;;;;17.65;9.40;;;10.10;99.90;;;;;;5034578;28;20033;-89
2023/11/21 02:32:54;;;;;;;21.25;9.98;;;10.10;99.90;;;;;;5034347;28;20040;-88
2023/11/21 02:35:23;;;;;;;15.27;9.55;;;10.20;99.90;;;;;;5034434;28;20068;-88
2023/11/21 02:37:52;;;;;;;16.67;9.50;;;10.20;99.90;;;;;;5043688;28;20025;-88
2023/11/21 02:40:18;;;;;;;18.58;9.77;;;10.20;99.90;;;;;;5036041;28;20026;-88
2023/11/21 02:42:44;;;;;;;46.65;11.75;;;10.20;99.90;;;;;;5033970;28;20033;-88
2023/11/21 02:45:12;;;;;;;17.80;9.88;;;10.20;99.90;;;;;;5033958;28;20542;-88
2023/11/21 02:47:39;;;;;;;16.45;10.10;;;10.20;99.90;;;;;;5034159;28;20025;-89
2023/11/21 02:50:07;;;;;;;17.63;9.40;;;10.20;99.90;;;;;;5034232;28;20411;-88
2023/11/21 02:52:33;;;;;;;19.92;9.75;;;10.20;99.90;;;;;;5033655;28;20021;-88
2023/11/21 02:54:59;;;;;;;17.52;10.07;;;10.30;99.90;;;;;;5034525;28;20092;-91
2023/11/21 02:57:24;;;;;;;27.00;10.48;;;10.30;99.90;;;;;;5034157;28;20512;-88
2023/11/21 02:59:50;;;;;;;22.83;9.98;;;10.30;99.90;;;;;;5039178;28;20026;-90
2023/11/21 03:02:16;;;;;;;22.73;10.43;;;10.30;99.90;;;;;;5046712;28;20503;-90
2023/11/21 03:04:42;;;;;;;17.80;10.25;;;10.30;99.90;;;;;;5051172;28;20047;-91
2023/11/21 03:07:09;;;;;;;20.95;9.88;;;10.30;99.90;;;;;;5051011;28;20107;-90
2023/11/21 03:09:35;;;;;;;23.05;10.30;;;10.40;99.90;;;;;;5053266;28;20082;-90
2023/11/21 03:12:01;;;;;;;20.85;8.93;;;10.30;99.90;;;;;;5053416;28;20021;-89
2023/11/21 03:14:26;;;;;;;24.98;9.18;;;10.40;99.90;;;;;;5052497;28;20025;-91
2023/11/21 03:16:52;;;;;;;23.75;10.02;;;10.30;99.90;;;;;;5053798;28;20383;-89
2023/11/21 03:19:18;;;;;;;17.13;10.18;;;10.30;99.90;;;;;;5060894;28;20047;-90
2023/11/21 03:21:43;;;;;;;16.83;9.10;;;10.30;99.90;;;;;;5041605;28;20437;-90
2023/11/21 03:24:09;;;;;;;14.48;10.02;;;10.30;99.90;;;;;;5049341;28;20070;-90
2023/11/21 03:26:34;;;;;;;18.60;10.50;;;10.30;99.90;;;;;;5052381;28;20052;-88
2023/11/21 03:29:00;;;;;;;21.23;9.77;;;10.30;99.90;;;;;;5051769;28;20474;-90
2023/11/21 03:31:26;;;;;;;26.23;9.23;;;10.30;99.90;;;;;;5053012;28;20071;-89
2023/11/21 03:33:53;;;;;;;18.52;9.43;;;10.30;99.90;;;;;;5051922;28;20028;-90
2023/11/21 03:36:19;;;;;;;24.17;10.35;;;10.30;99.90;;;;;;5053329;28;20029;-90
2023/11/21 03:38:45;;;;;;;19.77;9.20;;;10.50;99.90;;;;;;5052253;28;20031;-90
2023/11/21 03:41:10;;;;;;;17.42;9.30;;;10.20;99.90;;;;;;5043164;28;20033;-87
2023/11/21 03:43:37;;;;;;;19.67;9.13;;;10.20;99.90;;;;;;5040881;28;20028;-89
2023/11/21 03:46:03;;;;;;;19.50;8.95;;;10.10;99.90;;;;;;5032996;28;20033;-88
2023/11/21 03:48:29;;;;;;;17.23;9.68;;;10.10;99.90;;;;;;5032384;28;20041;-88
2023/11/21 03:50:54;;;;;;;20.83;9.60;;;10.10;99.90;;;;;;5032556;28;20505;-88
2023/11/21 03:53:20;;;;;;;24.65;9.90;;;10.40;99.90;;;;;;5035356;28;20027;-89
2023/11/21 03:55:46;;;;;;;19.55;9.43;;;10.20;99.90;;;;;;5044773;28;20151;-88
2023/11/21 03:58:12;;;;;;;24.00;9.38;;;10.20;99.90;;;;;;5032904;28;20033;-88
2023/11/21 04:00:37;;;;;;;17.88;9.05;;;10.20;99.90;;;;;;5032708;28;20080;-88
2023/11/21 04:03:03;;;;;;;22.10;8.32;;;10.20;99.90;;;;;;5035117;28;20029;-90
2023/11/21 04:05:29;;;;;;;22.25;9.15;;;10.30;99.90;;;;;;5043444;28;20127;-88
2023/11/21 04:07:54;;;;;;;18.95;7.78;;;10.30;99.90;;;;;;5052647;28;20025;-89
2023/11/21 04:10:20;;;;;;;20.95;8.27;;;10.30;99.90;;;;;;5052204;28;20018;-90
2023/11/21 04:12:46;;;;;;;15.32;8.27;;;10.30;99.90;;;;;;5056820;28;20028;-90
2023/11/21 04:15:15;;;;;;;22.08;9.25;;;10.30;99.90;;;;;;5056306;28;20029;-90
2023/11/21 04:17:41;;;;;;;14.32;7.65;;;10.40;99.90;;;;;;5051216;28;20108;-90
2023/11/21 04:20:09;;;;;;;23.55;9.00;;;10.40;99.90;;;;;;5053004;28;20037;-88
2023/11/21 04:22:43;;;;;;;20.55;8.55;;;10.40;99.90;;;;;;5051516;28;20021;-90
2023/11/21 04:25:14;;;;;;;17.52;8.25;;;10.30;99.90;;;;;;5039085;28;20045;-90
2023/11/21 04:27:43;;;;;;;18.27;8.57;;;10.40;99.90;;;;;;5052400;28;20029;-90
2023/11/21 04:30:09;;;;;;;20.67;8.85;;;10.30;99.90;;;;;;5052127;28;20036;-90
2023/11/21 04:32:35;;;;;;;18.80;8.95;;;10.30;99.90;;;;;;5052405;28;20021;-90
2023/11/21 04:35:01;;;;;;;18.27;7.82;;;10.20;99.90;;;;;;5052677;28;20032;-90
2023/11/21 04:37:26;;;;;;;13.10;8.27;;;10.30;99.90;;;;;;5051988;28;20037;-90
2023/11/21 04:39:52;;;;;;;20.10;8.73;;;10.20;99.90;;;;;;5051817;28;20507;-90
2023/11/21 04:42:17;;;;;;;20.02;8.82;;;10.20;99.90;;;;;;5056463;28;20025;-91
2023/11/21 04:44:44;;;;;;;19.05;9.27;;;10.20;99.90;;;;;;5055061;28;20537;-88
2023/11/21 04:47:09;;;;;;;14.48;8.95;;;10.20;99.90;;;;;;5056225;28;20481;-88
2023/11/21 04:49:35;;;;;;;18.70;9.93;;;10.20;99.90;;;;;;5055553;28;20025;-88
2023/11/21 04:52:01;;;;;;;21.05;8.63;;;10.20;99.90;;;;;;5055664;28;20127;-88
2023/11/21 04:54:27;;;;;;;19.52;9.57;;;10.20;99.90;;;;;;5043625;28;20038;-88
2023/11/21 04:56:52;;;;;;;22.35;9.10;;;10.20;99.90;;;;;;5050874;28;20079;-88
2023/11/21 04:59:18;;;;;;;22.70;9.15;;;10.20;99.90;;;;;;5055532;28;20500;-88
2023/11/21 05:01:44;;;;;;;18.35;9.27;;;10.20;99.90;;;;;;5055641;28;20473;-87
2023/11/21 05:04:09;;;;;;;15.77;8.80;;;10.20;99.90;;;;;;5056045;28;20025;-89
2023/11/21 05:06:35;;;;;;;16.27;9.57;;;10.20;99.90;;;;;;5055880;28;20037;-89
2023/11/21 05:09:00;;;;;;;17.85;8.50;;;10.20;99.90;;;;;;5059624;28;20022;-89
2023/11/21 05:11:27;;;;;;;21.85;9.40;;;10.30;99.90;;;;;;5040711;28;20124;-88
2023/11/21 05:13:53;;;;;;;18.35;8.50;;;10.20;99.90;;;;;;5035313;28;20029;-89
2023/11/21 05:16:19;;;;;;;17.88;9.02;;;10.20;99.90;;;;;;5035725;28;20021;-88
2023/11/21 05:18:45;;;;;;;18.63;9.10;;;10.20;99.90;;;;;;5035513;28;20109;-88
2023/11/21 05:21:11;;;;;;;19.05;9.30;;;10.10;99.90;;;;;;5035464;28;20025;-89
2023/11/21 05:23:37;;;;;;;17.33;9.55;;;10.10;99.90;;;;;;5036414;28;20029;-87
2023/11/21 05:26:03;;;;;;;16.80;9.48;;;10.00;99.90;;;;;;5035394;28;20492;-89
2023/11/21 05:28:28;;;;;;;16.90;9.32;;;10.10;99.90;;;;;;5039936;28;20028;-88
2023/11/21 05:30:54;;;;;;;22.10;11.15;;;10.10;99.90;;;;;;5047211;28;20029;-88
2023/11/21 05:33:20;;;;;;;15.77;9.85;;;10.10;99.90;;;;;;5062778;28;20013;-88
2023/11/21 05:35:46;;;;;;;16.80;9.65;;;10.10;99.90;;;;;;5070968;28;20031;-87
2023/11/21 05:38:11;;;;;;;18.35;9.38;;;10.10;99.90;;;;;;5068701;28;20021;-88
2023/11/21 05:40:37;;;;;;;19.55;9.48;;;10.40;99.90;;;;;;5066494;28;20432;-87
2023/11/21 05:43:05;;;;;;;19.02;8.82;;;10.10;99.90;;;;;;5058728;28;20085;-87
2023/11/21 05:45:30;;;;;;;17.75;9.32;;;10.10;99.90;;;;;;5062645;28;20033;-87
2023/11/21 05:47:56;;;;;;;17.15;8.57;;;10.10;99.90;;;;;;5056289;28;20021;-87
2023/11/21 05:50:22;;;;;;;18.83;9.52;;;10.10;99.90;;;;;;5055060;28;20380;-86
2023/11/21 05:52:48;;;;;;;16.13;8.90;;;10.10;99.90;;;;;;5046444;28;20446;-88
2023/11/21 05:55:14;;;;;;;13.85;8.82;;;10.10;99.90;;;;;;5037067;28;20123;-88
2023/11/21 05:57:41;;;;;;;16.73;9.38;;;10.20;99.90;;;;;;5035338;28;20022;-89
2023/11/21 06:00:21;;;;;;;13.25;9.73;;;10.20;99.90;;;;;;5035590;28;20037;-89
2023/11/21 06:02:51;;;;;;;13.13;9.30;;;10.20;99.90;;;;;;5053083;28;20077;-87
2023/11/21 06:05:18;;;;;;;20.93;11.27;;;10.20;99.90;;;;;;5039625;28;20096;-87
2023/11/21 06:07:44;;;;;;;14.05;9.90;;;10.20;99.90;;;;;;5034501;28;20352;-88
2023/11/21 06:10:14;;;;;;;12.50;9.38;;;10.10;99.90;;;;;;5033940;28;20117;-88
2023/11/21 06:12:42;;;;;;;14.98;9.45;;;10.10;99.90;;;;;;5034317;28;20025;-88
2023/11/21 06:15:09;;;;;;;16.65;8.90;;;10.10;99.90;;;;;;5034601;28;20037;-87
2023/11/21 06:17:37;;;;;;;15.43;10.13;;;10.10;99.90;;;;;;5040719;28;20029;-88
2023/11/21 06:20:13;;;;;;;17.42;10.18;;;10.10;99.90;;;;;;5054927;28;20050;-88
2023/11/21 06:22:41;;;;;;;20.40;10.65;;;10.10;99.90;;;;;;5052362;28;20492;-88
2023/11/21 06:25:09;;;;;;;20.92;10.85;;;10.10;99.90;;;;;;5046655;28;20029;-87
2023/11/21 06:27:40;;;;;;;14.25;10.63;;;10.10;99.90;;;;;;5054154;28;20032;-88
2023/11/21 06:30:07;;;;;;;16.27;9.80;;;10.00;99.90;;;;;;5053056;28;20021;-87
2023/11/21 06:32:34;;;;;;;18.17;10.80;;;10.10;99.90;;;;;;5046214;28;20476;-88
2023/11/21 06:35:00;;;;;;;12.70;9.38;;;10.10;99.90;;;;;;5053999;28;20417;-87
2023/11/21 06:37:27;;;;;;;15.05;10.45;;;10.10;99.90;;;;;;5051618;28;20040;-88
2023/11/21 06:39:53;;;;;;;16.73;10.30;;;10.10;99.90;;;;;;5045623;28;20332;-87
2023/11/21 06:42:21;;;;;;;19.85;9.93;;;10.10;99.90;;;;;;5034297;28;20025;-87
2023/11/21 06:44:48;;;;;;;13.75;9.23;;;10.20;99.90;;;;;;5033109;28;20127;-88
2023/11/21 06:47:14;;;;;;;21.92;9.70;;;10.20;99.90;;;;;;5034441;28;20036;-88
2023/11/21 06:49:41;;;;;;;12.32;8.68;;;10.20;99.90;;;;;;5033786;28;20109;-87
2023/11/21 06:52:06;;;;;;;15.70;9.50;;;10.20;99.90;;;;;;5033635;28;20370;-88
2023/11/21 06:54:32;;;;;;;13.05;8.88;;;10.20;99.90;;;;;;5034545;28;20021;-91
2023/11/21 06:56:58;;;;;;;10.75;7.85;;;10.20;99.90;;;;;;5046853;28;20064;-87
2023/11/21 06:59:24;;;;;;;12.07;8.65;;;10.20;99.90;;;;;;5037672;28;20068;-88
2023/11/21 07:01:50;;;;;;;12.80;8.40;;;10.10;99.90;;;;;;5039546;28;20095;-87
2023/11/21 07:04:16;;;;;;;11.48;8.90;;;10.20;99.90;;;;;;5045575;28;20029;-87
2023/11/21 07:06:43;;;;;;;9.93;7.97;;;10.20;99.90;;;;;;5053140;28;20035;-88
2023/11/21 07:09:09;;;;;;;15.00;8.50;;;10.20;99.90;;;;;;5053886;28;20029;-88
2023/11/21 07:11:35;;;;;;;10.55;8.32;;;10.30;99.90;;;;;;5053539;28;20044;-88
2023/11/21 07:14:07;;;;;;;8.88;7.53;;;10.20;99.90;;;;;;5052969;28;20036;-88
2023/11/21 07:16:39;;;;;;;10.25;6.75;;;10.30;99.90;;;;;;5053408;28;20139;-89
2023/11/21 07:19:08;;;;;;;11.65;6.30;;;10.30;99.90;;;;;;5053026;28;20033;-89
2023/11/21 07:21:34;;;;;;;7.40;5.60;;;10.30;99.90;;;;;;5052820;28;20061;-88
2023/11/21 07:24:01;;;;;;;7.60;5.28;;;10.70;99.90;;;;;;5048105;28;20082;-88
2023/11/21 07:26:27;;;;;;;9.48;6.10;;;10.30;99.90;;;;;;5035190;28;20045;-87
2023/11/21 07:28:53;;;;;;;13.07;4.82;;;10.40;99.90;;;;;;5049574;28;20029;-89
2023/11/21 07:31:19;;;;;;;11.85;4.68;;;10.40;99.90;;;;;;5053565;28;20025;-89
2023/11/21 07:33:48;;;;;;;7.57;5.53;;;10.40;99.90;;;;;;5049712;28;20385;-88
2023/11/21 07:36:14;;;;;;;10.88;6.25;;;10.40;99.90;;;;;;5053188;28;20033;-88
2023/11/21 07:38:40;;;;;;;10.20;5.18;;;10.40;99.90;;;;;;5052992;28;20052;-87
2023/11/21 07:41:07;;;;;;;10.27;5.07;;;10.40;99.90;;;;;;5052821;28;20469;-87
2023/11/21 07:43:36;;;;;;;7.70;4.40;;;10.50;99.90;;;;;;5052549;28;20028;-89
2023/11/21 07:46:03;;;;;;;8.40;4.97;;;10.50;99.90;;;;;;5053573;28;20037;-87
2023/11/21 07:48:32;;;;;;;10.45;4.80;;;10.50;99.90;;;;;;5051759;28;20025;-87
2023/11/21 07:50:58;;;;;;;11.07;5.32;;;10.30;99.90;;;;;;5059952;28;20063;-87
2023/11/21 07:53:25;;;;;;;15.48;4.80;;;10.50;99.90;;;;;;5062395;28;20028;-88
2023/11/21 07:55:52;;;;;;;8.82;4.70;;;10.50;99.90;;;;;;5052146;28;20053;-91
2023/11/21 07:58:18;;;;;;;11.50;5.30;;;10.50;99.90;;;;;;5053486;28;20116;-88
2023/11/21 08:00:43;;;;;;;8.80;5.30;;;10.90;99.90;;;;;;5052990;28;20382;-89
2023/11/21 08:03:09;;;;;;;11.10;5.82;;;10.50;99.90;;;;;;5051851;28;20021;-87
2023/11/21 08:05:35;;;;;;;14.32;6.07;;;10.60;99.90;;;;;;5052254;28;20516;-92
2023/11/21 08:08:01;;;;;;;9.68;6.20;;;10.60;99.90;;;;;;5052662;28;20385;-87
2023/11/21 08:10:28;;;;;;;14.63;6.93;;;10.50;99.90;;;;;;5052808;28;20029;-88
2023/11/21 08:12:53;;;;;;;14.02;6.57;;;10.50;99.90;;;;;;5052540;28;20068;-88
2023/11/21 08:15:19;;;;;;;12.73;7.22;;;10.60;99.90;;;;;;5054052;28;20091;-88
2023/11/21 08:17:46;;;;;;;12.23;6.88;;;10.60;99.90;;;;;;5058947;28;20585;-88
2023/11/21 08:20:12;;;;;;;9.30;7.65;;;11.50;99.90;;;;;;5056571;28;20483;-90
2023/11/21 08:22:40;;;;;;;12.25;7.15;;;10.50;99.90;;;;;;5054845;28;20029;-89
2023/11/21 08:25:06;;;;;;;9.40;6.70;;;10.60;99.90;;;;;;5055216;28;20037;-91
2023/11/21 08:27:31;;;;;;;10.95;7.45;;;10.60;99.90;;;;;;5053186;28;20028;-91
2023/11/21 08:29:57;;;;;;;12.13;7.20;;;10.70;99.90;;;;;;5054581;28;20496;-90
2023/11/21 08:32:22;;;;;;;13.45;6.57;;;10.60;99.90;;;;;;5054462;28;20177;-90
2023/11/21 08:34:50;;;;;;;9.73;6.82;;;10.60;99.90;;;;;;5043664;28;20068;-89
2023/11/21 08:37:16;;;;;;;14.15;8.18;;;11.20;99.90;;;;;;5045897;28;20455;-87
2023/11/21 08:39:43;;;;;;;12.23;8.00;;;10.60;99.90;;;;;;5056140;28;20059;-85
2023/11/21 08:42:09;;;;;;;12.00;8.02;;;10.60;99.90;;;;;;5041345;28;20017;-89
2023/11/21 08:44:34;;;;;;;10.50;8.38;;;10.60;99.90;;;;;;5049364;28;20036;-92
2023/11/21 08:47:00;;;;;;;15.50;9.20;;;10.60;99.90;;;;;;5060692;28;20021;-92
2023/11/21 08:49:30;;;;;;;13.27;8.38;;;10.60;99.90;;;;;;5056514;28;20025;-93
2023/11/21 08:51:55;;;;;;;12.43;8.48;;;10.60;99.90;;;;;;5038585;28;20533;-92
2023/11/21 08:54:21;;;;;;;11.38;7.60;;;10.60;99.90;;;;;;5049486;28;20059;-90
2023/11/21 08:56:47;;;;;;;9.35;8.45;;;10.70;99.90;;;;;;5057197;28;20049;-91
2023/11/21 08:59:14;;;;;;;17.83;9.20;;;10.70;99.90;;;;;;5057127;28;20480;-92
2023/11/21 09:01:41;;;;;;;12.10;8.95;;;10.60;99.90;;;;;;5058312;28;20087;-89
2023/11/21 09:04:07;;;;;;;12.80;8.63;;;10.60;99.90;;;;;;5057793;28;20024;-90
2023/11/21 09:06:32;;;;;;;13.70;8.48;;;11.50;99.90;;;;;;5054898;28;20078;-90
2023/11/21 09:08:58;;;;;;;14.02;8.50;;;10.60;99.90;;;;;;5056245;28;20099;-91
2023/11/21 09:11:25;;;;;;;11.52;8.10;;;10.60;99.90;;;;;;5056199;28;20028;-92
2023/11/21 09:13:54;;;;;;;12.93;8.25;;;10.60;99.90;;;;;;5052436;28;20437;-89
2023/11/21 09:16:19;;;;;;;11.75;6.72;;;10.60;99.90;;;;;;5055516;28;20021;-88
2023/11/21 09:18:45;;;;;;;10.13;6.75;;;10.70;99.90;;;;;;5038148;28;20032;-89
2023/11/21 09:21:10;;;;;;;8.77;6.68;;;11.60;99.90;;;;;;5044351;28;20045;-89
2023/11/21 09:23:36;;;;;;;10.00;6.07;;;11.70;99.90;;;;;;5036156;28;20493;-89
2023/11/21 09:26:02;;;;;;;11.25;6.43;;;10.80;99.90;;;;;;5052094;28;20091;-87
2023/11/21 09:28:27;;;;;;;9.13;5.82;;;10.80;99.90;;;;;;5054510;28;20037;-88
2023/11/21 09:30:53;;;;;;;6.65;5.63;;;10.80;99.90;;;;;;5052442;28;20457;-90
2023/11/21 09:33:20;;;;;;;7.35;5.97;;;10.80;99.90;;;;;;5036206;28;20034;-89
2023/11/21 09:35:46;;;;;;;10.30;5.85;;;10.80;99.90;;;;;;5036107;28;20030;-91
2023/11/21 09:38:11;;;;;;;6.95;5.35;;;10.80;99.90;;;;;;5037986;28;20029;-90
2023/11/21 09:40:38;;;;;;;11.18;5.50;;;10.90;99.90;;;;;;5058476;28;20041;-85
2023/11/21 09:43:15;;;;;;;6.97;5.38;;;10.90;99.90;;;;;;5062090;28;20033;-91
2023/11/21 09:45:45;;;;;;;6.95;5.22;;;10.90;99.90;;;;;;5058468;28;20040;-92
2023/11/21 09:48:12;;;;;;;6.63;5.10;;;10.90;99.90;;;;;;5055544;28;20021;-90
2023/11/21 09:50:38;;;;;;;6.85;4.50;;;10.90;99.90;;;;;;5056037;28;20276;-91
2023/11/21 09:53:27;;;;;;;9.57;4.78;;;10.90;99.90;;;;;;5055238;28;20017;-90
2023/11/21 09:55:54;;;;;;;5.35;4.65;;;11.00;99.90;;;;;;5054511;28;20080;-91
2023/11/21 09:58:23;;;;;;;7.70;5.20;;;10.90;99.90;;;;;;5056494;28;20025;-91
2023/11/21 10:00:52;;;;;;;5.63;4.70;;;11.00;99.90;;;;;;5055606;28;20036;-91
2023/11/21 10:03:24;;;;;;;9.20;5.38;;;11.00;99.90;;;;;;5055708;28;20025;-88
2023/11/21 10:05:52;;;;;;;6.25;4.75;;;11.00;99.90;;;;;;5047004;28;20036;-92
2023/11/21 10:08:21;;;;;;;8.70;4.97;;;11.70;99.90;;;;;;5036870;28;20048;-93
2023/11/21 10:10:52;;;;;;;6.20;4.80;;;11.80;99.90;;;;;;5035161;28;20116;-92
2023/11/21 10:13:19;;;;;;;5.32;4.80;;;11.90;99.90;;;;;;5036297;28;20048;-92
2023/11/21 10:15:50;;;;;;;6.30;5.18;;;11.90;99.90;;;;;;5035540;28;20478;-93
2023/11/21 10:18:20;;;;;;;6.43;5.50;;;10.40;99.90;;;;;;5036064;28;20388;-93
2023/11/21 10:20:52;;;;;;;7.15;5.18;;;11.10;99.90;;;;;;5037793;28;20124;-93
2023/11/21 10:23:22;;;;;;;9.23;5.55;;;12.50;99.90;;;;;;5038184;28;20437;-91
2023/11/21 10:25:49;;;;;;;7.60;5.93;;;11.00;99.90;;;;;;5050442;28;20117;-93
2023/11/21 10:28:15;;;;;;;7.75;6.13;;;11.90;99.90;;;;;;5046145;28;20276;-93
2023/11/21 10:30:41;;;;;;;7.20;5.18;;;11.30;99.90;;;;;;5034184;28;20022;-92
2023/11/21 10:33:11;;;;;;;9.07;5.85;;;11.90;99.90;;;;;;5042715;28;20022;-92
2023/11/21 10:35:54;;;;;;;6.22;5.35;;;11.20;99.90;;;;;;5076894;28;20041;-93
2023/11/21 10:38:24;;;;;;;7.07;5.70;;;11.30;99.90;;;;;;5068802;28;20029;-93
2023/11/21 10:40:50;;;;;;;8.02;5.25;;;11.00;99.90;;;;;;5055396;28;20029;-92
2023/11/21 10:43:17;;;;;;;5.60;5.05;;;11.10;99.90;;;;;;5054379;28;20152;-92
2023/11/21 10:45:43;;;;;;;5.50;4.75;;;11.90;99.90;;;;;;5055194;28;20040;-93
2023/11/21 10:48:10;;;;;;;6.10;4.72;;;12.20;99.90;;;;;;5055172;28;20049;-91
2023/11/21 10:50:37;;;;;;;5.75;4.97;;;11.20;99.90;;;;;;5042498;28;20066;-92
2023/11/21 10:53:04;;;;;;;6.68;4.90;;;11.80;99.90;;;;;;5045297;28;20025;-89
2023/11/21 10:55:31;;;;;;;6.22;5.25;;;11.90;99.90;;;;;;5035268;28;20037;-90
2023/11/21 10:57:59;;;;;;;6.22;5.40;;;12.40;99.90;;;;;;5037495;28;20035;-92
2023/11/21 11:00:27;;;;;;;7.50;5.53;;;11.20;99.90;;;;;;5055402;28;20048;-92
2023/11/21 11:02:56;;;;;;;6.35;5.43;;;11.00;99.90;;;;;;5054538;28;20382;-92
2023/11/21 11:05:25;;;;;;;7.93;6.43;;;11.00;99.90;;;;;;5055332;28;20037;-92
2023/11/21 11:07:59;;;;;;;8.10;5.82;;;11.00;99.90;;;;;;5055442;28;20146;-92
2023/11/21 11:10:26;;;;;;;8.85;6.45;;;11.90;99.90;;;;;;5036857;28;20842;-91
2023/11/21 11:12:55;;;;;;;10.40;5.97;;;11.90;99.90;;;;;;5054166;28;20504;-90
2023/11/21 11:15:22;;;;;;;9.32;6.28;;;11.00;99.90;;;;;;5052814;28;20080;-91
2023/11/21 11:17:48;;;;;;;7.80;6.30;;;10.90;99.90;;;;;;5041851;28;20025;-89
2023/11/21 11:20:23;;;;;;;10.10;6.20;;;11.20;99.90;;;;;;5046871;28;20025;-91
2023/11/21 11:23:01;;;;;;;8.38;6.72;;;11.60;99.90;;;;;;5043280;28;20030;-92
2023/11/21 11:25:54;;;;;;;11.18;7.50;;;11.80;99.90;;;;;;5041986;28;20033;-93
2023/11/21 11:28:31;;;;;;;12.10;7.22;;;10.90;99.90;;;;;;5046047;28;20025;-92
2023/11/21 11:31:38;;;;;;;10.18;7.78;;;11.60;99.90;;;;;;5057834;28;20025;-91
2023/11/21 11:34:37;;;;;;;13.10;8.23;;;10.90;99.90;;;;;;5037684;28;20030;-92
2023/11/21 11:37:06;;;;;;;12.52;8.48;;;11.60;99.90;;;;;;5014310;28;20414;-88
2023/11/21 11:39:38;;;;;;;12.25;8.75;;;10.80;99.90;;;;;;5031407;28;20485;-87
2023/11/21 11:42:07;;;;;;;13.38;8.80;;;11.60;99.90;;;;;;5032458;28;20026;-88
2023/11/21 11:44:51;;;;;;;13.55;8.90;;;10.90;99.90;;;;;;5033842;28;20021;-90
2023/11/21 11:47:17;;;;;;;11.73;9.10;;;10.90;99.90;;;;;;5041982;28;20097;-86
2023/11/21 11:50:19;;;;;;;17.25;10.38;;;11.40;99.90;;;;;;5054541;28;20025;-85
2023/11/21 11:52:50;;;;;;;14.88;9.02;;;11.80;99.90;;;;;;5057237;28;20025;-88
2023/11/21 11:58:15;;;;;;;15.38;9.10;;;11.20;99.90;;;;;;5043552;28;20045;-87
2023/11/21 12:00:42;;;;;;;15.32;9.93;;;11.80;99.90;;;;;;5039496;28;20029;-89
2023/11/21 12:03:09;;;;;;;16.30;8.90;;;11.60;99.90;;;;;;5051885;28;20028;-89
2023/11/21 12:05:38;;;;;;;12.75;9.82;;;11.20;99.90;;;;;;5050562;28;20440;-88
2023/11/21 12:08:06;;;;;;;14.65;9.75;;;12.50;99.90;;;;;;5041604;28;20033;-89
2023/11/21 12:10:42;;;;;;;17.02;11.25;;;12.40;99.90;;;;;;5050826;28;20029;-88
2023/11/21 12:13:10;;;;;;;15.18;10.70;;;11.80;99.90;;;;;;5052933;28;20059;-88
2023/11/21 12:15:36;;;;;;;17.00;10.73;;;10.90;99.90;;;;;;5050466;28;20021;-90
2023/11/21 12:18:03;;;;;;;16.35;10.18;;;10.90;99.90;;;;;;5053934;28;20083;-90
2023/11/21 12:20:29;;;;;;;14.25;9.80;;;11.00;99.90;;;;;;5046932;28;20032;-90
2023/11/21 12:22:56;;;;;;;17.10;10.30;;;11.00;99.90;;;;;;5040912;28;20025;-92
2023/11/21 12:25:24;;;;;;;15.65;9.18;;;11.00;99.90;;;;;;5055788;28;20075;-89
2023/11/21 12:27:52;;;;;;;13.18;9.15;;;11.90;99.90;;;;;;5053884;28;20108;-91
2023/11/21 12:30:33;;;;;;;15.45;10.13;;;10.00;99.90;;;;;;5052676;28;20105;-90
2023/11/21 12:33:06;;;;;;;17.90;10.23;;;11.00;99.90;;;;;;5033300;28;20025;-90
2023/11/21 12:35:36;;;;;;;19.13;11.43;;;11.90;99.90;;;;;;5034977;28;20041;-90
2023/11/21 12:38:03;;;;;;;17.13;11.45;;;11.40;99.90;;;;;;5037773;28;20033;-90
2023/11/21 12:40:29;;;;;;;17.55;11.50;;;11.80;99.90;;;;;;5053991;28;20037;-92
2023/11/21 12:42:58;;;;;;;17.98;10.68;;;11.70;99.90;;;;;;5053670;28;20376;-93